createdAt,value
2023-01-13T00:00:29.278Z,9.278460
2023-01-13T00:01:29.324Z,9.278441
2023-01-13T00:02:29.234Z,9.278469
2023-01-13T00:03:29.215Z,9.278530
2023-01-13T00:04:29.202Z,9.278210
2023-01-13T00:05:29.147Z,9.278227
2023-01-13T00:06:29.167Z,9.278333
2023-01-13T00:07:29.113Z,9.278197
2023-01-13T00:08:29.100Z,9.278256
2023-01-13T00:09:29.149Z,9.278322
2023-01-13T00:10:29.077Z,9.278343
2023-01-13T00:11:29.098Z,9.278393
2023-01-13T00:12:29.035Z,9.278390
2023-01-13T00:13:29.017Z,9.278376
2023-01-13T00:14:29.000Z,9.278427
2023-01-13T00:15:29.007Z,9.278549
2023-01-13T00:16:28.994Z,9.278543
2023-01-13T00:17:28.975Z,9.278603
2023-01-13T00:18:28.941Z,9.278652
2023-01-13T00:19:28.925Z,9.278420
2023-01-13T00:20:28.908Z,9.278492
2023-01-13T00:21:28.936Z,9.278620
2023-01-13T00:22:28.873Z,9.278343
2023-01-13T00:23:28.853Z,9.278470
2023-01-13T00:24:28.848Z,9.278491
2023-01-13T00:25:28.849Z,9.278637
2023-01-13T00:26:28.827Z,9.278375
2023-01-13T00:27:28.785Z,9.278472
2023-01-13T00:28:28.794Z,9.278421
2023-01-13T00:29:28.758Z,9.278334
2023-01-13T00:30:28.744Z,9.278254
2023-01-13T00:31:28.787Z,9.278661
2023-01-13T00:32:28.708Z,9.278526
2023-01-13T00:33:28.724Z,9.278388
2023-01-13T00:34:28.668Z,9.278363
2023-01-13T00:35:28.656Z,9.278502
2023-01-13T00:36:28.683Z,9.278501
2023-01-13T00:37:28.628Z,9.278425
2023-01-13T00:38:28.619Z,9.278522
2023-01-13T00:39:28.586Z,9.278456
2023-01-13T00:40:28.558Z,9.278531
2023-01-13T00:41:28.600Z,9.278508
2023-01-13T00:42:28.536Z,9.278453
2023-01-13T00:43:28.517Z,9.278449
2023-01-13T00:44:28.497Z,9.278530
2023-01-13T00:45:28.474Z,9.278446
2023-01-13T00:46:28.583Z,9.278412
2023-01-13T00:47:28.429Z,9.278411
2023-01-13T00:48:28.445Z,9.278425
2023-01-13T00:49:28.405Z,9.278424
2023-01-13T00:50:28.405Z,9.278434
2023-01-13T00:51:28.409Z,9.278455
2023-01-13T00:52:28.393Z,9.278457
2023-01-13T00:53:28.348Z,9.278493
2023-01-13T00:54:28.326Z,9.278502
2023-01-13T00:55:28.312Z,9.278547
2023-01-13T00:56:39.682Z,9.278472
2023-01-13T00:57:30.268Z,9.278643
2023-01-13T00:58:28.324Z,9.278701
2023-01-13T00:59:28.255Z,9.278373
2023-01-13T01:00:28.244Z,9.278163
2023-01-13T01:01:28.323Z,9.277793
2023-01-13T01:02:28.296Z,9.277962
2023-01-13T01:03:28.188Z,9.277843
2023-01-13T01:04:28.211Z,9.278383
2023-01-13T01:05:28.166Z,9.278362
2023-01-13T01:06:28.174Z,9.278560
2023-01-13T01:07:28.112Z,9.278589
2023-01-13T01:08:28.091Z,9.278253
2023-01-13T01:09:28.078Z,9.278189
2023-01-13T01:10:28.055Z,9.278261
2023-01-13T01:11:28.063Z,9.278345
2023-01-13T01:12:28.026Z,9.278372
2023-01-13T01:13:28.010Z,9.278345
2023-01-13T01:14:27.981Z,9.278385
2023-01-13T01:15:27.999Z,9.278378
2023-01-13T01:16:28.057Z,9.278378
2023-01-13T01:17:27.929Z,9.278349
2023-01-13T01:18:27.935Z,9.278312
2023-01-13T01:19:27.898Z,9.278298
2023-01-13T01:20:27.875Z,9.278324
2023-01-13T01:21:27.929Z,9.278295
2023-01-13T01:22:27.851Z,9.278298
2023-01-13T01:23:27.830Z,9.278311
2023-01-13T01:24:27.812Z,9.278156
2023-01-13T01:25:27.826Z,9.278233
2023-01-13T01:26:27.897Z,9.278284
2023-01-13T01:27:27.791Z,9.278316
2023-01-13T01:28:27.743Z,9.278399
2023-01-13T01:29:27.731Z,9.278433
2023-01-13T01:30:27.707Z,9.278375
2023-01-13T01:31:27.792Z,9.278339
2023-01-13T01:32:27.683Z,9.278377
2023-01-13T01:33:27.658Z,9.278346
2023-01-13T01:34:27.627Z,9.278363
2023-01-13T01:35:27.629Z,9.278410
2023-01-13T01:36:27.652Z,9.278305
2023-01-13T01:37:27.601Z,9.278338
2023-01-13T01:38:27.585Z,9.278352
2023-01-13T01:39:27.565Z,9.278290
2023-01-13T01:40:27.549Z,9.278349
2023-01-13T01:41:27.554Z,9.278262
2023-01-13T01:42:27.505Z,9.278405
2023-01-13T01:43:27.502Z,9.278347
2023-01-13T01:44:27.488Z,9.278368
2023-01-13T01:45:27.484Z,9.278281
2023-01-13T01:46:27.567Z,9.278333
2023-01-13T01:47:27.429Z,9.278345
2023-01-13T01:48:27.421Z,9.278544
2023-01-13T01:49:27.454Z,9.278374
2023-01-13T01:50:27.386Z,9.278275
2023-01-13T01:51:27.400Z,9.278461
2023-01-13T01:52:27.353Z,9.278399
2023-01-13T01:53:27.337Z,9.278357
2023-01-13T01:54:27.333Z,9.278046
2023-01-13T01:55:27.313Z,9.277991
2023-01-13T01:56:27.326Z,9.278008
2023-01-13T01:57:27.274Z,9.278017
2023-01-13T01:58:27.256Z,9.278213
2023-01-13T01:59:27.274Z,9.278109
2023-01-13T02:00:27.224Z,9.278193
2023-01-13T02:01:27.311Z,9.278545
2023-01-13T02:02:28.226Z,9.278607
2023-01-13T02:03:27.194Z,9.278457
2023-01-13T02:04:28.172Z,9.278426
2023-01-13T02:05:27.133Z,9.278322
2023-01-13T02:06:27.153Z,9.278261
2023-01-13T02:07:27.139Z,9.278155
2023-01-13T02:08:27.092Z,9.277946
2023-01-13T02:09:27.070Z,9.278131
2023-01-13T02:10:27.058Z,9.278310
2023-01-13T02:11:27.064Z,9.278342
2023-01-13T02:12:27.014Z,9.278419
2023-01-13T02:13:27.008Z,9.278235
2023-01-13T02:14:26.980Z,9.278249
2023-01-13T02:15:26.962Z,9.278269
2023-01-13T02:16:27.008Z,9.278188
2023-01-13T02:17:26.937Z,9.278131
2023-01-13T02:18:26.913Z,9.278235
2023-01-13T02:19:26.891Z,9.277818
2023-01-13T02:20:26.950Z,9.277898
2023-01-13T02:21:26.885Z,9.278031
2023-01-13T02:22:26.838Z,9.278323
2023-01-13T02:23:26.817Z,9.278624
2023-01-13T02:24:26.815Z,9.278497
2023-01-13T02:25:26.791Z,9.278315
2023-01-13T02:26:26.832Z,9.278498
2023-01-13T02:27:26.773Z,9.278509
2023-01-13T02:28:26.797Z,9.278513
2023-01-13T02:29:26.733Z,9.278444
2023-01-13T02:30:26.704Z,9.278439
2023-01-13T02:31:26.828Z,9.278543
2023-01-13T02:32:26.674Z,9.278481
2023-01-13T02:33:26.672Z,9.278279
2023-01-13T02:34:26.631Z,9.278349
2023-01-13T02:35:26.638Z,9.278289
2023-01-13T02:36:26.598Z,9.278280
2023-01-13T02:37:26.627Z,9.278398
2023-01-13T02:38:26.565Z,9.278212
2023-01-13T02:39:26.580Z,9.278185
2023-01-13T02:40:26.552Z,9.278270
2023-01-13T02:41:26.528Z,9.278193
2023-01-13T02:42:26.548Z,9.278317
2023-01-13T02:43:26.494Z,9.278285
2023-01-13T02:44:26.471Z,9.278361
2023-01-13T02:45:26.491Z,9.278356
2023-01-13T02:46:26.423Z,9.278276
2023-01-13T02:47:27.448Z,9.278451
2023-01-13T02:48:26.416Z,9.278219
2023-01-13T02:49:26.414Z,9.278287
2023-01-13T02:50:26.363Z,9.278265
2023-01-13T02:51:26.354Z,9.278393
2023-01-13T02:52:26.368Z,9.278377
2023-01-13T02:53:26.317Z,9.278387
2023-01-13T02:54:26.304Z,9.278093
2023-01-13T02:55:26.287Z,9.277953
2023-01-13T02:56:26.327Z,9.277796
2023-01-13T02:57:26.290Z,9.278482
2023-01-13T02:58:26.231Z,9.278719
2023-01-13T02:59:26.239Z,9.278482
2023-01-13T03:00:26.092Z,9.278088
2023-01-13T03:01:26.215Z,9.277645
2023-01-13T03:02:26.175Z,9.277686
2023-01-13T03:03:26.037Z,9.277807
2023-01-13T03:04:26.014Z,9.278221
2023-01-13T03:05:25.999Z,9.278501
2023-01-13T03:06:25.990Z,9.278951
2023-01-13T03:07:26.005Z,9.279891
2023-01-13T03:08:25.949Z,9.279270
2023-01-13T03:09:25.932Z,9.278806
2023-01-13T03:10:25.976Z,9.278286
2023-01-13T03:11:25.939Z,9.278421
2023-01-13T03:12:25.911Z,9.278357
2023-01-13T03:13:25.869Z,9.278324
2023-01-13T03:14:25.845Z,9.278336
2023-01-13T03:15:25.833Z,9.278431
2023-01-13T03:16:25.831Z,9.278412
2023-01-13T03:17:25.831Z,9.278492
2023-01-13T03:18:25.804Z,9.278623
2023-01-13T03:19:25.780Z,9.278771
2023-01-13T03:20:25.756Z,9.278642
2023-01-13T03:21:25.768Z,9.278481
2023-01-13T03:22:25.875Z,9.278482
2023-01-13T03:23:25.708Z,9.278607
2023-01-13T03:24:25.690Z,9.278483
2023-01-13T03:25:25.686Z,9.278264
2023-01-13T03:26:25.648Z,9.278484
2023-01-13T03:27:25.671Z,9.278692
2023-01-13T03:28:25.618Z,9.278497
2023-01-13T03:29:25.619Z,9.278322
2023-01-13T03:30:25.620Z,9.278384
2023-01-13T03:31:25.580Z,9.278251
2023-01-13T03:32:25.605Z,9.278440
2023-01-13T03:33:25.538Z,9.278576
2023-01-13T03:34:25.526Z,9.278332
2023-01-13T03:35:25.504Z,9.278410
2023-01-13T03:36:25.501Z,9.278506
2023-01-13T03:37:25.508Z,9.278385
2023-01-13T03:38:25.465Z,9.278524
2023-01-13T03:39:25.464Z,9.277775
2023-01-13T03:40:25.415Z,9.277966
2023-01-13T03:41:25.415Z,9.278181
2023-01-13T03:42:25.425Z,9.278486
2023-01-13T03:43:25.373Z,9.278477
2023-01-13T03:44:25.370Z,9.278494
2023-01-13T03:45:25.362Z,9.278233
2023-01-13T03:46:25.327Z,9.278267
2023-01-13T03:47:25.355Z,9.278257
2023-01-13T03:48:25.299Z,9.278390
2023-01-13T03:49:25.279Z,9.278275
2023-01-13T03:50:25.265Z,9.278281
2023-01-13T03:51:25.244Z,9.278316
2023-01-13T03:52:25.252Z,9.278200
2023-01-13T03:53:25.208Z,9.278263
2023-01-13T03:54:25.207Z,9.278286
2023-01-13T03:55:25.172Z,9.278503
2023-01-13T03:56:25.154Z,9.278309
2023-01-13T03:57:25.181Z,9.278365
2023-01-13T03:58:25.124Z,9.278053
2023-01-13T03:59:25.111Z,9.277912
2023-01-13T04:00:25.098Z,9.278086
2023-01-13T04:01:25.167Z,9.278295
2023-01-13T04:02:25.083Z,9.278290
2023-01-13T04:03:25.057Z,9.278457
2023-01-13T04:04:25.027Z,9.278465
2023-01-13T04:05:24.993Z,9.278500
2023-01-13T04:06:24.992Z,9.278419
2023-01-13T04:07:25.019Z,9.278389
2023-01-13T04:08:24.940Z,9.278159
2023-01-13T04:09:24.924Z,9.278336
2023-01-13T04:10:24.965Z,9.278353
2023-01-13T04:11:24.911Z,9.278285
2023-01-13T04:12:24.888Z,9.278312
2023-01-13T04:13:24.920Z,9.278343
2023-01-13T04:14:24.853Z,9.278564
2023-01-13T04:15:24.910Z,9.278540
2023-01-13T04:16:24.816Z,9.278111
2023-01-13T04:17:24.810Z,9.278194
2023-01-13T04:18:24.818Z,9.278493
2023-01-13T04:19:24.773Z,9.278291
2023-01-13T04:20:24.745Z,9.278333
2023-01-13T04:21:24.724Z,9.278386
2023-01-13T04:22:24.709Z,9.278422
2023-01-13T04:23:24.739Z,9.278348
2023-01-13T04:24:24.702Z,9.278390
2023-01-13T04:25:24.658Z,9.278377
2023-01-13T04:26:24.654Z,9.278368
2023-01-13T04:27:24.632Z,9.278341
2023-01-13T04:28:24.647Z,9.278365
2023-01-13T04:29:24.608Z,9.278394
2023-01-13T04:30:24.578Z,9.278356
2023-01-13T04:31:24.722Z,9.278461
2023-01-13T04:32:24.554Z,9.278384
2023-01-13T04:33:24.551Z,9.278431
2023-01-13T04:34:25.831Z,9.278309
2023-01-13T04:35:24.498Z,9.278502
2023-01-13T04:36:24.474Z,9.278329
2023-01-13T04:37:24.462Z,9.278131
2023-01-13T04:38:24.491Z,9.278099
2023-01-13T04:39:24.437Z,9.278176
2023-01-13T04:40:24.412Z,9.278356
2023-01-13T04:41:24.404Z,9.278450
2023-01-13T04:42:24.380Z,9.278347
2023-01-13T04:43:24.400Z,9.278286
2023-01-13T04:44:24.355Z,9.278265
2023-01-13T04:45:24.390Z,9.278378
2023-01-13T04:46:24.330Z,9.278357
2023-01-13T04:47:24.289Z,9.278325
2023-01-13T04:48:24.302Z,9.278329
2023-01-13T04:49:24.360Z,9.278323
2023-01-13T04:50:24.251Z,9.278391
2023-01-13T04:51:24.218Z,9.278299
2023-01-13T04:52:24.213Z,9.278442
2023-01-13T04:53:24.216Z,9.278345
2023-01-13T04:54:24.166Z,9.278335
2023-01-13T04:55:24.162Z,9.278337
2023-01-13T04:56:24.147Z,9.278278
2023-01-13T04:57:24.132Z,9.278399
2023-01-13T04:58:24.146Z,9.278418
2023-01-13T04:59:24.091Z,9.278323
2023-01-13T05:00:24.088Z,9.278288
2023-01-13T05:01:24.187Z,9.278348
2023-01-13T05:02:24.078Z,9.278441
2023-01-13T05:03:24.041Z,9.278351
2023-01-13T05:04:24.073Z,9.278229
2023-01-13T05:05:23.982Z,9.278283
2023-01-13T05:06:23.982Z,9.278321
2023-01-13T05:07:23.963Z,9.278320
2023-01-13T05:08:23.970Z,9.278418
2023-01-13T05:09:23.926Z,9.278356
2023-01-13T05:10:24.264Z,9.278187
2023-01-13T05:11:24.890Z,9.278323
2023-01-13T05:12:23.893Z,9.278507
2023-01-13T05:13:23.895Z,9.278346
2023-01-13T05:14:23.871Z,9.278456
2023-01-13T05:15:23.815Z,9.278230
2023-01-13T05:16:23.848Z,9.278234
2023-01-13T05:17:23.789Z,9.278223
2023-01-13T05:18:23.790Z,9.278359
2023-01-13T05:19:23.810Z,9.278358
2023-01-13T05:20:23.736Z,9.278230
2023-01-13T05:21:23.733Z,9.278371
2023-01-13T05:22:23.705Z,9.278302
2023-01-13T05:23:23.745Z,9.278375
2023-01-13T05:24:23.734Z,9.278440
2023-01-13T05:25:23.679Z,9.278239
2023-01-13T05:26:23.627Z,9.278243
2023-01-13T05:27:24.620Z,9.278482
2023-01-13T05:28:23.628Z,9.278677
2023-01-13T05:29:23.585Z,9.278442
2023-01-13T05:30:23.572Z,9.278342
2023-01-13T05:31:23.595Z,9.278421
2023-01-13T05:32:23.538Z,9.278537
2023-01-13T05:33:23.562Z,9.278232
2023-01-13T05:34:23.510Z,9.278254
2023-01-13T05:35:23.501Z,9.278349
2023-01-13T05:36:23.463Z,9.278399
2023-01-13T05:37:23.480Z,9.278379
2023-01-13T05:38:23.490Z,9.278330
2023-01-13T05:39:23.422Z,9.278222
2023-01-13T05:40:24.400Z,9.278192
2023-01-13T05:41:23.385Z,9.278359
2023-01-13T05:42:23.366Z,9.278445
2023-01-13T05:43:23.375Z,9.278450
2023-01-13T05:44:23.328Z,9.278365
2023-01-13T05:45:23.308Z,9.278368
2023-01-13T05:46:23.315Z,9.278385
2023-01-13T05:47:23.401Z,9.278317
2023-01-13T05:48:23.309Z,9.278303
2023-01-13T05:49:23.258Z,9.278325
2023-01-13T05:50:23.248Z,9.278313
2023-01-13T05:51:23.207Z,9.278522
2023-01-13T05:52:23.202Z,9.278531
2023-01-13T05:53:50.656Z,9.278394
2023-01-13T05:54:23.169Z,9.278286
2023-01-13T05:55:23.146Z,9.278287
2023-01-13T05:56:23.155Z,9.278495
2023-01-13T05:57:23.167Z,9.278375
2023-01-13T05:58:23.137Z,9.278433
2023-01-13T05:59:23.075Z,9.278421
2023-01-13T06:00:23.064Z,9.278391
2023-01-13T06:01:23.131Z,9.278330
2023-01-13T06:02:23.034Z,9.278354
2023-01-13T06:03:23.048Z,9.278356
2023-01-13T06:04:23.045Z,9.278305
2023-01-13T06:05:23.028Z,9.278395
2023-01-13T06:06:22.966Z,9.278286
2023-01-13T06:07:22.945Z,9.278340
2023-01-13T06:08:23.012Z,9.278337
2023-01-13T06:09:22.914Z,9.278381
2023-01-13T06:10:22.880Z,9.278255
2023-01-13T06:11:22.873Z,9.278190
2023-01-13T06:12:22.875Z,9.278200
2023-01-13T06:13:22.894Z,9.278250
2023-01-13T06:14:22.836Z,9.278147
2023-01-13T06:15:22.816Z,9.278192
2023-01-13T06:16:22.923Z,9.278181
2023-01-13T06:17:22.779Z,9.278180
2023-01-13T06:18:22.802Z,9.278222
2023-01-13T06:19:22.752Z,9.278229
2023-01-13T06:20:22.743Z,9.278155
2023-01-13T06:21:22.728Z,9.278061
2023-01-13T06:22:22.697Z,9.278111
2023-01-13T06:23:22.723Z,9.277996
2023-01-13T06:24:22.661Z,9.278040
2023-01-13T06:25:22.634Z,9.278204
2023-01-13T06:26:22.645Z,9.278225
2023-01-13T06:27:22.622Z,9.278404
2023-01-13T06:28:22.651Z,9.278356
2023-01-13T06:29:22.612Z,9.278284
2023-01-13T06:30:22.556Z,9.278293
2023-01-13T06:31:22.626Z,9.278412
2023-01-13T06:32:22.562Z,9.278521
2023-01-13T06:33:22.551Z,9.278296
2023-01-13T06:34:22.485Z,9.278358
2023-01-13T06:35:22.489Z,9.278214
2023-01-13T06:36:22.534Z,9.278257
2023-01-13T06:37:22.462Z,9.278232
2023-01-13T06:38:22.468Z,9.278223
2023-01-13T06:39:22.428Z,9.278234
2023-01-13T06:40:22.378Z,9.278169
2023-01-13T06:41:22.370Z,9.278296
2023-01-13T06:42:22.351Z,9.278262
2023-01-13T06:43:22.335Z,9.278199
2023-01-13T06:44:22.345Z,9.278234
2023-01-13T06:45:22.299Z,9.278226
2023-01-13T06:46:22.335Z,9.278135
2023-01-13T06:47:22.279Z,9.278195
2023-01-13T06:48:22.258Z,9.278281
2023-01-13T06:49:22.267Z,9.278247
2023-01-13T06:50:22.218Z,9.278193
2023-01-13T06:51:22.210Z,9.277969
2023-01-13T06:52:22.189Z,9.277982
2023-01-13T06:53:22.154Z,9.278173
2023-01-13T06:54:22.182Z,9.278154
2023-01-13T06:55:22.132Z,9.278163
2023-01-13T06:56:22.118Z,9.278331
2023-01-13T06:57:22.101Z,9.278312
2023-01-13T06:58:22.072Z,9.278358
2023-01-13T06:59:22.085Z,9.278265
2023-01-13T07:00:22.043Z,9.278239
2023-01-13T07:01:22.095Z,9.278389
2023-01-13T07:02:22.147Z,9.278308
2023-01-13T07:03:22.017Z,9.278151
2023-01-13T07:04:22.012Z,9.278172
2023-01-13T07:05:21.975Z,9.278074
2023-01-13T07:06:21.947Z,9.278020
2023-01-13T07:07:21.972Z,9.278285
2023-01-13T07:08:21.909Z,9.278364
2023-01-13T07:09:21.945Z,9.278392
2023-01-13T07:10:21.916Z,9.278419
2023-01-13T07:11:21.857Z,9.278503
2023-01-13T07:12:21.846Z,9.278223
2023-01-13T07:13:21.831Z,9.278248
2023-01-13T07:14:21.846Z,9.277947
2023-01-13T07:15:21.841Z,9.278135
2023-01-13T07:16:21.824Z,9.278213
2023-01-13T07:17:21.756Z,9.278177
2023-01-13T07:18:21.790Z,9.278152
2023-01-13T07:19:22.244Z,9.278050
2023-01-13T07:20:22.713Z,9.278126
2023-01-13T07:21:21.776Z,9.278229
2023-01-13T07:22:21.671Z,9.278374
2023-01-13T07:23:21.648Z,9.278255
2023-01-13T07:24:21.666Z,9.278227
2023-01-13T07:25:21.655Z,9.278163
2023-01-13T07:26:21.600Z,9.278325
2023-01-13T07:27:21.594Z,9.278251
2023-01-13T07:28:21.566Z,9.278422
2023-01-13T07:29:21.584Z,9.278292
2023-01-13T07:30:21.572Z,9.278281
2023-01-13T07:31:21.577Z,9.278181
2023-01-13T07:32:21.519Z,9.278342
2023-01-13T07:33:21.482Z,9.278248
2023-01-13T07:34:21.503Z,9.278339
2023-01-13T07:35:21.457Z,9.278341
2023-01-13T07:36:21.518Z,9.278399
2023-01-13T07:37:21.420Z,9.278449
2023-01-13T07:38:21.390Z,9.278466
2023-01-13T07:39:21.404Z,9.278396
2023-01-13T07:40:21.364Z,9.278119
2023-01-13T07:41:21.352Z,9.277795
2023-01-13T07:42:21.336Z,9.277796
2023-01-13T07:43:21.314Z,9.277666
2023-01-13T07:44:21.321Z,9.278423
2023-01-13T07:45:21.279Z,9.278349
2023-01-13T07:46:21.287Z,9.278815
2023-01-13T07:47:21.242Z,9.278935
2023-01-13T07:48:21.240Z,9.278701
2023-01-13T07:49:21.248Z,9.278610
2023-01-13T07:50:21.198Z,9.278299
2023-01-13T07:51:21.168Z,9.278157
2023-01-13T07:52:21.161Z,9.278090
2023-01-13T07:53:21.138Z,9.278114
2023-01-13T07:54:28.392Z,9.278090
2023-01-13T07:55:23.099Z,9.278006
2023-01-13T07:56:21.104Z,9.278399
2023-01-13T07:57:21.082Z,9.278569
2023-01-13T07:58:21.071Z,9.278439
2023-01-13T07:59:21.142Z,9.278498
2023-01-13T08:00:21.039Z,9.278439
2023-01-13T08:01:21.085Z,9.278269
2023-01-13T08:02:21.216Z,9.278311
2023-01-13T08:03:20.986Z,9.278217
2023-01-13T08:04:20.993Z,9.278219
2023-01-13T08:05:20.944Z,9.278216
2023-01-13T08:06:20.925Z,9.278569
2023-01-13T08:07:20.907Z,9.278496
2023-01-13T08:08:20.933Z,9.278321
2023-01-13T08:09:20.904Z,9.278418
2023-01-13T08:10:20.846Z,9.278348
2023-01-13T08:11:23.411Z,9.278429
2023-01-13T08:12:21.831Z,9.278204
2023-01-13T08:13:20.818Z,9.278206
2023-01-13T08:14:20.841Z,9.278223
2023-01-13T08:15:20.760Z,9.278288
2023-01-13T08:16:20.797Z,9.278334
2023-01-13T08:17:20.899Z,9.278202
2023-01-13T08:18:20.742Z,9.278302
2023-01-13T08:19:20.739Z,9.278245
2023-01-13T08:20:20.694Z,9.278286
2023-01-13T08:21:20.695Z,9.278153
2023-01-13T08:22:20.697Z,9.278127
2023-01-13T08:23:20.656Z,9.278012
2023-01-13T08:24:20.652Z,9.278228
2023-01-13T08:25:20.595Z,9.278101
2023-01-13T08:26:20.583Z,9.278049
2023-01-13T08:27:20.580Z,9.278164
2023-01-13T08:28:20.557Z,9.278317
2023-01-13T08:29:20.568Z,9.278146
2023-01-13T08:30:20.543Z,9.278304
2023-01-13T08:31:20.643Z,9.278102
2023-01-13T08:32:20.494Z,9.278378
2023-01-13T08:33:20.508Z,9.278316
2023-01-13T08:34:20.502Z,9.278115
2023-01-13T08:35:20.435Z,9.278333
2023-01-13T08:36:20.415Z,9.278167
2023-01-13T08:37:20.398Z,9.278383
2023-01-13T08:38:20.391Z,9.278391
2023-01-13T08:39:20.437Z,9.278123
2023-01-13T08:40:20.344Z,9.278508
2023-01-13T08:41:20.331Z,9.278423
2023-01-13T08:42:20.306Z,9.278090
2023-01-13T08:43:20.309Z,9.278516
2023-01-13T08:44:20.316Z,9.278606
2023-01-13T08:45:20.278Z,9.278493
2023-01-13T08:46:20.329Z,9.278257
2023-01-13T08:47:20.300Z,9.278776
2023-01-13T08:48:20.248Z,9.278208
2023-01-13T08:49:20.233Z,9.278472
2023-01-13T08:50:20.192Z,9.278692
2023-01-13T08:51:20.209Z,9.278433
2023-01-13T08:52:20.175Z,9.278921
2023-01-13T08:53:20.180Z,9.277868
2023-01-13T08:54:20.172Z,9.278203
2023-01-13T08:55:20.108Z,9.278274
2023-01-13T08:56:21.170Z,9.278383
2023-01-13T08:57:20.149Z,9.278371
2023-01-13T08:58:20.042Z,9.278350
2023-01-13T08:59:20.081Z,9.278348
2023-01-13T09:00:20.033Z,9.278403
2023-01-13T09:01:20.130Z,9.278323
2023-01-13T09:02:20.183Z,9.278341
2023-01-13T09:03:19.975Z,9.278185
2023-01-13T09:04:20.019Z,9.278397
2023-01-13T09:05:19.923Z,9.278282
2023-01-13T09:06:19.936Z,9.278320
2023-01-13T09:07:19.901Z,9.278367
2023-01-13T09:08:19.883Z,9.278296
2023-01-13T09:09:19.890Z,9.278284
2023-01-13T09:10:19.859Z,9.278389
2023-01-13T09:11:19.841Z,9.278461
2023-01-13T09:12:19.836Z,9.278419
2023-01-13T09:13:19.786Z,9.278135
2023-01-13T09:14:19.810Z,9.278236
2023-01-13T09:15:19.793Z,9.278356
2023-01-13T09:16:19.827Z,9.278301
2023-01-13T09:17:19.720Z,9.278328
2023-01-13T09:18:19.713Z,9.278297
2023-01-13T09:19:19.720Z,9.278270
2023-01-13T09:20:19.682Z,9.278206
2023-01-13T09:21:19.651Z,9.278524
2023-01-13T09:22:19.634Z,9.278398
2023-01-13T09:23:19.622Z,9.278366
2023-01-13T09:24:19.642Z,9.278196
2023-01-13T09:25:19.593Z,9.277765
2023-01-13T09:26:19.571Z,9.278131
2023-01-13T09:27:19.577Z,9.278177
2023-01-13T09:28:19.540Z,9.278722
2023-01-13T09:29:19.583Z,9.278736
2023-01-13T09:30:19.512Z,9.278491
2023-01-13T09:31:19.581Z,9.278708
2023-01-13T09:32:19.470Z,9.278288
2023-01-13T09:33:19.457Z,9.278491
2023-01-13T09:34:19.434Z,9.278260
2023-01-13T09:35:19.452Z,9.278290
2023-01-13T09:36:19.403Z,9.278414
2023-01-13T09:37:19.384Z,9.278465
2023-01-13T09:38:19.371Z,9.278356
2023-01-13T09:39:19.462Z,9.278315
2023-01-13T09:40:19.357Z,9.278389
2023-01-13T09:41:19.326Z,9.278244
2023-01-13T09:42:19.328Z,9.278230
2023-01-13T09:43:19.284Z,9.278347
2023-01-13T09:44:19.273Z,9.278321
2023-01-13T09:45:19.281Z,9.278337
2023-01-13T09:46:19.260Z,9.278282
2023-01-13T09:47:19.238Z,9.278385
2023-01-13T09:48:19.202Z,9.278468
2023-01-13T09:49:19.181Z,9.278321
2023-01-13T09:50:19.225Z,9.278394
2023-01-13T09:51:19.250Z,9.278395
2023-01-13T09:52:19.145Z,9.278275
2023-01-13T09:53:19.159Z,9.278419
2023-01-13T09:54:19.134Z,9.278427
2023-01-13T09:55:19.149Z,9.278477
2023-01-13T09:56:19.077Z,9.278465
2023-01-13T09:57:19.064Z,9.278159
2023-01-13T09:58:19.042Z,9.278046
2023-01-13T09:59:19.021Z,9.277995
2023-01-13T10:00:19.021Z,9.278374
2023-01-13T10:01:20.109Z,9.278294
2023-01-13T10:02:18.984Z,9.278352
2023-01-13T10:03:18.976Z,9.278050
2023-01-13T10:04:19.030Z,9.278022
2023-01-13T10:05:18.961Z,9.278234
2023-01-13T10:06:18.913Z,9.278243
2023-01-13T10:07:19.208Z,9.278259
2023-01-13T10:08:18.872Z,9.278338
2023-01-13T10:09:18.855Z,9.278392
2023-01-13T10:10:18.870Z,9.278631
2023-01-13T10:11:18.845Z,9.278360
2023-01-13T10:12:18.819Z,9.278358
2023-01-13T10:13:18.801Z,9.278216
2023-01-13T10:14:18.782Z,9.278263
2023-01-13T10:15:18.785Z,9.278322
2023-01-13T10:16:18.892Z,9.278189
2023-01-13T10:17:18.735Z,9.278172
2023-01-13T10:18:18.712Z,9.278462
2023-01-13T10:19:18.701Z,9.278372
2023-01-13T10:20:18.724Z,9.278335
2023-01-13T10:21:18.656Z,9.278367
2023-01-13T10:22:18.660Z,9.278175
2023-01-13T10:23:18.662Z,9.278135
2023-01-13T10:24:18.612Z,9.278427
2023-01-13T10:25:18.630Z,9.278422
2023-01-13T10:26:18.783Z,9.278490
2023-01-13T10:27:18.563Z,9.278554
2023-01-13T10:28:19.368Z,9.278724
2023-01-13T10:29:19.537Z,9.278655
2023-01-13T10:30:18.548Z,9.278460
2023-01-13T10:31:18.591Z,9.278244
2023-01-13T10:32:18.492Z,9.278364
2023-01-13T10:33:18.457Z,9.278187
2023-01-13T10:34:18.451Z,9.278111
2023-01-13T10:35:18.469Z,9.278127
2023-01-13T10:36:18.459Z,9.278188
2023-01-13T10:37:18.431Z,9.278236
2023-01-13T10:38:18.462Z,9.278356
2023-01-13T10:39:18.401Z,9.278391
2023-01-13T10:40:18.502Z,9.278223
2023-01-13T10:41:18.375Z,9.278203
2023-01-13T10:42:18.339Z,9.278077
2023-01-13T10:43:18.303Z,9.278076
2023-01-13T10:44:18.347Z,9.278244
2023-01-13T10:45:18.313Z,9.278304
2023-01-13T10:46:18.297Z,9.278436
2023-01-13T10:47:18.248Z,9.278463
2023-01-13T10:48:18.239Z,9.278539
2023-01-13T10:49:18.201Z,9.278569
2023-01-13T10:50:18.292Z,9.278556
2023-01-13T10:51:18.180Z,9.278541
2023-01-13T10:52:18.186Z,9.278369
2023-01-13T10:53:18.157Z,9.278410
2023-01-13T10:54:18.143Z,9.278369
2023-01-13T10:55:18.135Z,9.278412
2023-01-13T10:56:18.076Z,9.278534
2023-01-13T10:57:18.069Z,9.278441
2023-01-13T10:58:18.148Z,9.278476
2023-01-13T10:59:18.014Z,9.278022
2023-01-13T11:00:19.055Z,9.278218
2023-01-13T11:01:18.087Z,9.278200
2023-01-13T11:02:24.896Z,9.278119
2023-01-13T11:03:20.016Z,9.278414
2023-01-13T11:04:17.939Z,9.278487
2023-01-13T11:05:17.980Z,9.278399
2023-01-13T11:06:17.902Z,9.278457
2023-01-13T11:07:17.902Z,9.278419
2023-01-13T11:08:17.925Z,9.278435
2023-01-13T11:09:17.882Z,9.278458
2023-01-13T11:10:17.900Z,9.278344
2023-01-13T11:11:17.896Z,9.278428
2023-01-13T11:12:17.804Z,9.278380
2023-01-13T11:13:17.787Z,9.278267
2023-01-13T11:14:17.766Z,9.278240
2023-01-13T11:15:17.791Z,9.278374
2023-01-13T11:16:17.754Z,9.278265
2023-01-13T11:17:17.722Z,9.278258
2023-01-13T11:18:17.715Z,9.278266
2023-01-13T11:19:17.704Z,9.278277
2023-01-13T11:20:17.837Z,9.278326
2023-01-13T11:21:17.652Z,9.278244
2023-01-13T11:22:17.643Z,9.278111
2023-01-13T11:23:17.653Z,9.278138
2023-01-13T11:24:17.616Z,9.278150
2023-01-13T11:25:17.638Z,9.278232
2023-01-13T11:26:17.575Z,9.278202
2023-01-13T11:27:17.596Z,9.278094
2023-01-13T11:28:17.549Z,9.278346
2023-01-13T11:29:17.553Z,9.278329
2023-01-13T11:30:17.564Z,9.278403
2023-01-13T11:31:17.556Z,9.278661
2023-01-13T11:32:17.480Z,9.278518
2023-01-13T11:33:17.474Z,9.278201
2023-01-13T11:34:17.442Z,9.278113
2023-01-13T11:35:17.460Z,9.278271
2023-01-13T11:36:20.205Z,9.278161
2023-01-13T11:37:17.414Z,9.278037
2023-01-13T11:38:17.410Z,9.278187
2023-01-13T11:39:17.378Z,9.278031
2023-01-13T11:40:17.372Z,9.277761
2023-01-13T11:41:17.321Z,9.277720
2023-01-13T11:42:17.294Z,9.278011
2023-01-13T11:43:17.330Z,9.278039
2023-01-13T11:44:17.277Z,9.278004